createdAt,value
2018-05-12T00:01:40.806Z,14.28
2018-05-12T00:04:08.418Z,14.38
2018-05-12T00:06:36.124Z,14.43
2018-05-12T00:09:03.745Z,14.44
2018-05-12T00:11:32.251Z,14.43
2018-05-12T00:13:59.883Z,14.54
2018-05-12T00:16:28.280Z,14.51
2018-05-12T00:18:55.866Z,14.52
2018-05-12T00:21:23.445Z,14.71
2018-05-12T00:23:51.232Z,14.60
2018-05-12T00:26:18.821Z,14.50
2018-05-12T00:28:46.446Z,14.62
2018-05-12T00:31:14.026Z,14.43
2018-05-12T00:33:41.646Z,14.32
2018-05-12T00:36:09.225Z,14.17
2018-05-12T00:38:36.810Z,14.05
2018-05-12T00:41:04.389Z,13.89
2018-05-12T00:43:31.977Z,13.83
2018-05-12T00:45:59.597Z,13.67
2018-05-12T00:48:27.177Z,13.67
2018-05-12T00:50:54.816Z,13.49
2018-05-12T00:53:22.405Z,13.40
2018-05-12T00:55:49.995Z,13.32
2018-05-12T00:58:18.673Z,13.24
2018-05-12T01:00:46.254Z,13.20
2018-05-12T01:03:13.833Z,13.14
2018-05-12T01:05:41.415Z,13.10
2018-05-12T01:08:09.777Z,13.05
2018-05-12T01:10:37.361Z,13.00
2018-05-12T01:13:04.941Z,12.92
2018-05-12T01:15:32.517Z,12.88
2018-05-12T01:18:01.033Z,12.82
2018-05-12T01:20:28.608Z,12.77
2018-05-12T01:22:56.190Z,12.70
2018-05-12T01:25:23.764Z,12.65
2018-05-12T01:27:51.349Z,12.60
2018-05-12T01:30:19.704Z,12.55
2018-05-12T01:32:47.286Z,12.49
2018-05-12T01:35:14.906Z,12.43
2018-05-12T01:37:42.532Z,12.48
2018-05-12T01:40:10.117Z,12.56
2018-05-12T01:42:37.741Z,12.64
2018-05-12T01:45:05.326Z,12.60
2018-05-12T01:47:32.921Z,12.47
2018-05-12T01:50:00.534Z,12.40
2018-05-12T01:52:28.115Z,12.44
2018-05-12T01:54:55.694Z,12.41
2018-05-12T01:57:23.282Z,12.34
2018-05-12T01:59:50.862Z,12.28
2018-05-12T02:02:18.441Z,12.25
2018-05-12T02:04:46.065Z,12.22
2018-05-12T02:07:13.688Z,12.24
2018-05-12T02:09:41.322Z,12.24
2018-05-12T02:12:09.665Z,12.23
2018-05-12T02:14:37.284Z,12.18
2018-05-12T02:17:04.872Z,12.21
2018-05-12T02:19:32.484Z,12.20
2018-05-12T02:22:00.068Z,12.17
2018-05-12T02:24:28.421Z,12.15
2018-05-12T02:26:56.925Z,12.28
2018-05-12T02:29:24.513Z,12.31
2018-05-12T02:31:52.105Z,12.30
2018-05-12T02:34:19.689Z,12.31
2018-05-12T02:36:47.317Z,12.22
2018-05-12T02:39:14.941Z,12.22
2018-05-12T02:41:42.573Z,12.21
2018-05-12T02:44:10.161Z,12.32
2018-05-12T02:46:37.749Z,12.42
2018-05-12T02:49:05.346Z,12.48
2018-05-12T02:51:32.929Z,12.50
2018-05-12T02:54:00.523Z,12.60
2018-05-12T02:56:28.149Z,12.52
2018-05-12T02:58:55.778Z,12.75
2018-05-12T03:01:23.392Z,12.64
2018-05-12T03:03:50.991Z,12.69
2018-05-12T03:06:18.588Z,12.64
2018-05-12T03:08:46.212Z,12.64
2018-05-12T03:11:13.801Z,12.64
2018-05-12T03:13:41.421Z,12.65
2018-05-12T03:16:17.134Z,12.76
2018-05-12T03:18:44.730Z,12.80
2018-05-12T03:21:12.317Z,12.79
2018-05-12T03:23:39.903Z,12.81
2018-05-12T03:26:07.534Z,13.04
2018-05-12T03:28:35.128Z,13.04
2018-05-12T03:31:02.759Z,13.10
2018-05-12T03:33:30.353Z,13.12
2018-05-12T03:35:59.215Z,13.09
2018-05-12T03:38:26.809Z,13.09
2018-05-12T03:40:54.432Z,13.12
2018-05-12T03:43:22.013Z,13.31
2018-05-12T03:45:49.642Z,13.45
2018-05-12T03:48:17.265Z,13.60
2018-05-12T03:50:44.850Z,13.55
2018-05-12T03:53:12.474Z,13.72
2018-05-12T03:55:40.098Z,13.79
2018-05-12T03:58:07.685Z,13.78
2018-05-12T04:00:35.310Z,13.81
2018-05-12T04:03:03.425Z,13.78
2018-05-12T04:05:42.797Z,13.89
2018-05-12T04:08:22.943Z,14.04
2018-05-12T04:11:02.499Z,14.04
2018-05-12T04:13:31.026Z,14.13
2018-05-12T04:15:58.620Z,14.23
2018-05-12T04:18:26.293Z,14.15
2018-05-12T04:20:53.883Z,14.16
2018-05-12T04:23:21.516Z,14.23
2018-05-12T04:25:49.894Z,14.34
2018-05-12T04:28:18.261Z,14.36
2018-05-12T04:30:45.841Z,14.49
2018-05-12T04:33:13.422Z,14.51
2018-05-12T04:35:41.020Z,14.48
2018-05-12T04:38:08.637Z,14.62
2018-05-12T04:40:37.249Z,14.69
2018-05-12T04:43:05.605Z,14.72
2018-05-12T04:45:34.116Z,14.74
2018-05-12T04:48:01.737Z,14.80
2018-05-12T04:50:29.314Z,14.85
2018-05-12T04:52:56.897Z,14.82
2018-05-12T04:55:24.476Z,14.93
2018-05-12T04:57:52.060Z,14.99
2018-05-12T05:00:19.637Z,14.98
2018-05-12T05:02:47.223Z,15.01
2018-05-12T05:05:14.805Z,14.99
2018-05-12T05:07:42.379Z,15.02
2018-05-12T05:10:09.998Z,14.99
2018-05-12T05:12:37.621Z,15.15
2018-05-12T05:15:05.923Z,15.04
2018-05-12T05:17:33.501Z,15.11
2018-05-12T05:20:02.034Z,15.12
2018-05-12T05:22:29.621Z,15.05
2018-05-12T05:24:57.208Z,15.11
2018-05-12T05:27:24.786Z,15.05
2018-05-12T05:29:52.366Z,14.98
2018-05-12T05:32:19.957Z,14.86
2018-05-12T05:34:47.540Z,14.86
2018-05-12T05:37:15.131Z,14.94
2018-05-12T05:39:42.742Z,15.05
2018-05-12T05:42:10.321Z,15.09
2018-05-12T05:44:37.901Z,15.19
2018-05-12T05:47:05.482Z,15.28
2018-05-12T05:49:33.077Z,15.31
2018-05-12T05:52:00.661Z,15.44
2018-05-12T05:54:28.246Z,15.55
2018-05-12T05:56:55.833Z,15.70
2018-05-12T05:59:23.413Z,15.80
2018-05-12T06:01:51.010Z,15.93
2018-05-12T06:04:18.653Z,16.01
2018-05-12T06:06:46.265Z,16.15
2018-05-12T06:09:13.862Z,16.26
2018-05-12T06:11:41.454Z,16.33
2018-05-12T06:14:09.038Z,16.43
2018-05-12T06:16:36.630Z,16.50
2018-05-12T06:19:04.209Z,16.68
2018-05-12T06:21:31.797Z,16.65
2018-05-12T06:23:59.382Z,16.64
2018-05-12T06:26:27.026Z,16.70
2018-05-12T06:28:54.653Z,16.90
2018-05-12T06:31:22.230Z,16.94
2018-05-12T06:33:50.842Z,16.98
2018-05-12T06:36:18.449Z,17.15
2018-05-12T06:38:46.033Z,17.23
2018-05-12T06:41:13.617Z,17.37
2018-05-12T06:43:41.929Z,17.60
2018-05-12T06:46:09.510Z,17.48
2018-05-12T06:48:37.098Z,17.36
2018-05-12T06:51:06.710Z,17.45
2018-05-12T06:53:34.564Z,17.64
2018-05-12T06:56:02.153Z,17.80
2018-05-12T06:58:30.382Z,17.83
2018-05-12T07:00:57.965Z,18.01
2018-05-12T07:03:26.319Z,17.89
2018-05-12T07:05:53.901Z,17.86
2018-05-12T07:08:21.486Z,18.06
2018-05-12T07:10:49.066Z,18.08
2018-05-12T07:13:16.652Z,18.16
2018-05-12T07:15:44.273Z,18.21
2018-05-12T07:18:11.894Z,18.22
2018-05-12T07:20:39.482Z,18.54
2018-05-12T07:23:07.066Z,18.57
2018-05-12T07:25:35.432Z,18.74
2018-05-12T07:30:36.313Z,18.78
2018-05-12T07:33:03.898Z,18.61
2018-05-12T07:35:31.476Z,19.07
2018-05-12T07:37:59.095Z,19.02
2018-05-12T07:40:26.682Z,19.19
2018-05-12T07:42:54.265Z,19.32
2018-05-12T07:45:21.850Z,19.21
2018-05-12T07:47:50.213Z,19.17
2018-05-12T07:50:17.797Z,19.32
2018-05-12T07:52:45.382Z,19.45
2018-05-12T07:55:13.006Z,19.38
2018-05-12T07:57:40.592Z,19.58
2018-05-12T08:00:08.177Z,19.73
2018-05-12T08:02:35.762Z,19.49
2018-05-12T08:05:03.382Z,19.58
2018-05-12T08:07:30.957Z,19.51
2018-05-12T08:09:58.547Z,19.85
2018-05-12T08:12:27.041Z,19.95
2018-05-12T08:14:54.624Z,20.04
2018-05-12T08:17:22.221Z,20.11
2018-05-12T08:19:49.809Z,20.34
2018-05-12T08:22:17.401Z,20.32
2018-05-12T08:24:44.989Z,20.34
2018-05-12T08:27:12.574Z,20.26
2018-05-12T08:29:40.164Z,20.13
2018-05-12T08:32:07.745Z,20.09
2018-05-12T08:34:35.331Z,20.22
2018-05-12T08:37:02.921Z,20.46
2018-05-12T08:39:30.514Z,20.39
2018-05-12T08:41:59.005Z,20.44
2018-05-12T08:44:26.590Z,20.55
2018-05-12T08:46:54.173Z,20.47
2018-05-12T08:49:21.766Z,20.09
2018-05-12T08:51:50.124Z,20.03
2018-05-12T08:54:17.745Z,20.47
2018-05-12T08:56:46.143Z,20.48
2018-05-12T08:59:15.650Z,20.86
2018-05-12T09:01:44.131Z,20.94
2018-05-12T09:04:11.758Z,20.93
2018-05-12T09:06:39.342Z,21.21
2018-05-12T09:09:06.953Z,21.06
2018-05-12T09:11:34.537Z,21.12
2018-05-12T09:14:03.033Z,21.11
2018-05-12T09:16:31.629Z,20.97
2018-05-12T09:18:59.209Z,20.61
2018-05-12T09:21:26.825Z,20.73
2018-05-12T09:23:54.405Z,20.69
2018-05-12T09:26:22.025Z,20.79
2018-05-12T09:28:49.621Z,20.97
2018-05-12T09:31:17.278Z,21.08
2018-05-12T09:33:44.867Z,21.10
2018-05-12T09:36:13.125Z,21.09
2018-05-12T09:38:42.711Z,21.45
2018-05-12T09:41:14.033Z,21.55
2018-05-12T09:43:46.444Z,21.64
2018-05-12T09:46:15.269Z,21.60
2018-05-12T09:48:44.283Z,21.99
2018-05-12T09:54:05.138Z,21.95
2018-05-12T09:56:32.786Z,21.42
2018-05-12T09:59:00.378Z,21.43
2018-05-12T10:01:28.267Z,21.35
2018-05-12T10:03:55.894Z,21.05
2018-05-12T10:06:23.526Z,21.57
2018-05-12T10:08:51.136Z,21.73
2018-05-12T10:11:18.728Z,21.45
2018-05-12T10:13:46.316Z,21.30
2018-05-12T10:16:13.907Z,21.33
2018-05-12T10:18:41.538Z,21.36
2018-05-12T10:21:09.153Z,21.36
2018-05-12T10:23:36.882Z,21.36
2018-05-12T10:26:04.515Z,21.35
2018-05-12T10:28:32.150Z,21.57
2018-05-12T10:30:59.757Z,21.63
2018-05-12T10:33:27.388Z,21.79
2018-05-12T10:35:55.018Z,21.56
2018-05-12T10:38:22.599Z,21.86
2018-05-12T10:40:50.184Z,22.11
2018-05-12T10:43:17.769Z,22.15
2018-05-12T10:45:45.401Z,22.36
2018-05-12T10:48:13.001Z,22.61
2018-05-12T10:50:40.625Z,22.28
2018-05-12T10:53:08.259Z,22.22
2018-05-12T10:55:35.843Z,22.30
2018-05-12T10:58:03.471Z,22.53
2018-05-12T11:00:31.057Z,22.88
2018-05-12T11:02:58.645Z,22.77
2018-05-12T11:05:26.222Z,23.19
2018-05-12T11:07:54.711Z,23.33
2018-05-12T11:10:23.006Z,22.88
2018-05-12T11:12:50.698Z,22.82
2018-05-12T11:15:18.280Z,22.52
2018-05-12T11:17:45.866Z,22.65
2018-05-12T11:20:14.430Z,22.65
2018-05-12T11:22:41.970Z,22.97
2018-05-12T11:25:09.558Z,22.66
2018-05-12T11:27:37.181Z,22.82
2018-05-12T11:30:04.771Z,22.82
2018-05-12T11:32:32.361Z,22.69
2018-05-12T11:34:59.948Z,22.79
2018-05-12T11:37:27.541Z,23.02
2018-05-12T11:39:55.127Z,22.86
2018-05-12T11:42:23.483Z,23.24
2018-05-12T11:44:51.773Z,23.48
2018-05-12T11:47:20.146Z,23.52
2018-05-12T11:49:48.438Z,23.58
2018-05-12T11:52:16.805Z,23.44
2018-05-12T11:54:44.430Z,23.15
2018-05-12T11:57:12.098Z,23.50
2018-05-12T11:59:39.686Z,23.53
2018-05-12T12:02:07.317Z,23.79
2018-05-12T12:04:34.907Z,23.71
2018-05-12T12:07:02.493Z,23.80
2018-05-12T12:09:30.081Z,23.62
2018-05-12T12:11:57.668Z,23.54
2018-05-12T12:14:25.256Z,23.28
2018-05-12T12:16:52.857Z,23.50
2018-05-12T12:19:20.437Z,23.57
2018-05-12T12:21:48.024Z,23.72
2018-05-12T12:24:15.642Z,23.69
2018-05-12T12:26:43.232Z,23.78
2018-05-12T12:29:10.858Z,23.96
2018-05-12T12:31:39.343Z,23.82
2018-05-12T12:34:06.933Z,23.90
2018-05-12T12:36:34.522Z,23.94
2018-05-12T12:39:02.101Z,24.03
2018-05-12T12:41:30.630Z,23.83
2018-05-12T12:43:58.214Z,23.88
2018-05-12T12:46:26.538Z,24.23
2018-05-12T12:48:54.118Z,24.50
2018-05-12T12:51:21.698Z,24.75
2018-05-12T12:53:49.286Z,24.77
2018-05-12T12:56:16.874Z,24.61
2018-05-12T12:58:44.466Z,24.42
2018-05-12T13:01:12.051Z,24.10
2018-05-12T13:03:39.673Z,23.93
2018-05-12T13:06:07.290Z,23.59
2018-05-12T13:08:35.782Z,23.50
2018-05-12T13:11:03.367Z,23.64
2018-05-12T13:13:31.013Z,23.99
2018-05-12T13:15:58.631Z,24.06
2018-05-12T13:18:27.136Z,24.35
2018-05-12T13:20:55.622Z,24.48
2018-05-12T13:23:23.246Z,24.55
2018-05-12T13:25:50.829Z,24.58
2018-05-12T13:28:18.416Z,24.55
2018-05-12T13:30:46.005Z,24.66
2018-05-12T13:33:14.366Z,24.89
2018-05-12T13:35:42.843Z,24.95
2018-05-12T13:38:10.433Z,24.99
2018-05-12T13:40:38.025Z,25.30
2018-05-12T13:43:05.644Z,24.82
2018-05-12T13:45:33.261Z,24.80
2018-05-12T13:48:01.745Z,25.03
2018-05-12T13:50:30.266Z,25.04
2018-05-12T13:52:57.851Z,25.07
2018-05-12T13:55:25.470Z,25.32
2018-05-12T13:57:53.048Z,24.96
2018-05-12T14:00:21.374Z,24.83
2018-05-12T14:02:49.730Z,24.86
2018-05-12T14:05:18.228Z,25.00
2018-05-12T14:07:45.801Z,25.19
2018-05-12T14:10:13.374Z,25.65
2018-05-12T14:12:41.722Z,25.75
2018-05-12T14:15:10.094Z,25.88
2018-05-12T14:17:37.677Z,25.87
2018-05-12T14:20:06.194Z,25.91
2018-05-12T14:22:34.645Z,25.41
2018-05-12T14:25:02.234Z,25.10
2018-05-12T14:27:30.765Z,24.59
2018-05-12T14:29:59.123Z,24.37
2018-05-12T14:32:26.745Z,24.30
2018-05-12T14:34:55.233Z,24.66
2018-05-12T14:37:23.601Z,24.99
2018-05-12T14:39:52.967Z,24.94
2018-05-12T14:42:20.639Z,24.85
2018-05-12T14:44:48.214Z,25.64
2018-05-12T14:47:15.803Z,26.47
2018-05-12T14:49:43.381Z,27.00
2018-05-12T14:52:12.582Z,27.55
2018-05-12T14:54:40.939Z,27.87
2018-05-12T14:57:08.521Z,27.75
2018-05-12T14:59:36.109Z,26.55
2018-05-12T15:02:04.493Z,26.04
2018-05-12T15:04:32.117Z,25.75
2018-05-12T15:06:59.724Z,25.80
2018-05-12T15:09:28.252Z,25.25
2018-05-12T15:11:56.644Z,25.25
2018-05-12T15:14:24.270Z,25.50
2018-05-12T15:16:53.810Z,25.95
2018-05-12T15:19:22.349Z,27.03
2018-05-12T15:21:50.700Z,27.69
2018-05-12T15:24:19.001Z,27.98
2018-05-12T15:26:47.401Z,28.09
2018-05-12T15:29:15.902Z,28.37
2018-05-12T15:31:44.441Z,28.18
2018-05-12T15:34:12.023Z,27.97
2018-05-12T15:36:40.306Z,26.62
2018-05-12T15:39:07.887Z,25.63
2018-05-12T15:41:36.283Z,24.94
2018-05-12T15:44:04.735Z,24.99
2018-05-12T15:46:33.073Z,25.36
2018-05-12T15:49:00.652Z,25.40
2018-05-12T15:51:29.186Z,25.08
2018-05-12T15:53:57.564Z,24.72
2018-05-12T15:56:26.053Z,24.40
2018-05-12T15:58:54.579Z,24.25
2018-05-12T16:01:22.865Z,24.12
2018-05-12T16:03:51.221Z,23.96
2018-05-12T16:06:18.858Z,23.73
2018-05-12T16:08:46.444Z,23.47
2018-05-12T16:11:14.026Z,23.48
2018-05-12T16:13:41.612Z,23.38
2018-05-12T16:16:09.210Z,23.30
2018-05-12T16:18:36.790Z,23.29
2018-05-12T16:21:04.374Z,23.26
2018-05-12T16:23:32.013Z,23.17
2018-05-12T16:26:00.374Z,23.04
2018-05-12T16:28:28.738Z,22.96
2018-05-12T16:30:56.319Z,22.95
2018-05-12T16:33:24.802Z,22.75
2018-05-12T16:35:53.198Z,22.77
2018-05-12T16:38:21.490Z,22.75
2018-05-12T16:40:49.074Z,22.87
2018-05-12T16:43:16.673Z,22.86
2018-05-12T16:45:45.161Z,22.84
2018-05-12T16:48:12.741Z,22.83
2018-05-12T16:50:40.329Z,22.93
2018-05-12T16:53:07.947Z,22.96
2018-05-12T16:55:35.569Z,23.05
2018-05-12T16:58:04.017Z,23.19
2018-05-12T17:00:31.605Z,23.17
2018-05-12T17:02:59.187Z,23.13
2018-05-12T17:05:26.774Z,23.03
2018-05-12T17:07:55.246Z,22.82
2018-05-12T17:10:23.521Z,22.81
2018-05-12T17:12:51.122Z,22.47
2018-05-12T17:15:18.711Z,22.43
2018-05-12T17:17:46.331Z,22.33
2018-05-12T17:20:14.915Z,22.21
2018-05-12T17:22:43.330Z,22.19
2018-05-12T17:25:10.909Z,22.13
2018-05-12T17:27:38.495Z,22.00
2018-05-12T17:30:06.073Z,21.86
2018-05-12T17:32:33.657Z,21.67
2018-05-12T17:35:01.597Z,21.59
2018-05-12T17:37:29.185Z,21.61
2018-05-12T17:39:56.770Z,21.61
2018-05-12T17:42:25.116Z,21.44
2018-05-12T17:44:53.531Z,21.36
2018-05-12T17:47:21.113Z,21.21
2018-05-12T17:49:48.729Z,21.01
2018-05-12T17:52:16.314Z,21.00
2018-05-12T17:54:43.938Z,20.90
2018-05-12T17:57:11.516Z,20.74
2018-05-12T17:59:39.142Z,20.71
2018-05-12T18:02:06.769Z,20.76
2018-05-12T18:04:34.354Z,20.49
2018-05-12T18:07:01.972Z,20.68
2018-05-12T18:09:29.558Z,20.66
2018-05-12T18:11:57.192Z,20.55
2018-05-12T18:14:24.786Z,20.43
2018-05-12T18:16:52.424Z,20.32
2018-05-12T18:19:20.032Z,20.38
2018-05-12T18:21:48.537Z,20.18
2018-05-12T18:24:16.172Z,20.04
2018-05-12T18:26:43.977Z,19.92
2018-05-12T18:29:11.580Z,19.85
2018-05-12T18:31:39.961Z,19.68
2018-05-12T18:34:07.551Z,19.80
2018-05-12T18:36:35.855Z,19.65
2018-05-12T18:39:04.251Z,19.56
2018-05-12T18:41:31.851Z,19.48
2018-05-12T18:44:00.378Z,19.53
2018-05-12T18:46:27.967Z,19.40
2018-05-12T18:48:55.697Z,19.40
2018-05-12T18:51:23.292Z,19.32
2018-05-12T18:53:50.939Z,19.26
2018-05-12T18:56:18.529Z,19.17
2018-05-12T18:58:46.161Z,19.14
2018-05-12T19:01:13.751Z,19.10
2018-05-12T19:03:41.522Z,18.92
2018-05-12T19:06:09.925Z,18.97
2018-05-12T19:08:37.548Z,18.82
2018-05-12T19:11:05.913Z,18.85
2018-05-12T19:13:33.489Z,18.65
2018-05-12T19:16:01.119Z,18.59
2018-05-12T19:18:28.718Z,18.47
2018-05-12T19:20:56.356Z,18.51
2018-05-12T19:23:23.962Z,18.39
2018-05-12T19:25:51.548Z,18.39
2018-05-12T19:28:19.130Z,18.38
2018-05-12T19:30:46.709Z,18.27
2018-05-12T19:33:14.290Z,18.24
2018-05-12T19:35:41.877Z,18.12
2018-05-12T19:38:09.456Z,18.05
2018-05-12T19:40:37.039Z,17.98
2018-05-12T19:43:04.634Z,17.91
2018-05-12T19:45:33.047Z,17.87
2018-05-12T19:48:00.659Z,17.77
2018-05-12T19:50:28.241Z,17.75
2018-05-12T19:52:55.827Z,17.77
2018-05-12T19:55:23.409Z,17.89
2018-05-12T19:57:51.120Z,17.84
2018-05-12T20:00:18.705Z,17.88
2018-05-12T20:02:46.291Z,17.76
2018-05-12T20:05:14.810Z,17.66
2018-05-12T20:07:42.391Z,17.57
2018-05-12T20:10:10.017Z,17.61
2018-05-12T20:12:37.623Z,17.64
2018-05-12T20:15:05.254Z,17.51
2018-05-12T20:17:32.838Z,17.57
2018-05-12T20:20:00.419Z,17.51
2018-05-12T20:22:28.011Z,17.53
2018-05-12T20:24:55.598Z,17.58
2018-05-12T20:27:23.226Z,17.59
2018-05-12T20:29:50.811Z,17.54
2018-05-12T20:32:19.268Z,17.43
2018-05-12T20:34:47.122Z,17.32
2018-05-12T20:37:14.777Z,17.41
2018-05-12T20:39:42.366Z,17.30
2018-05-12T20:42:10.006Z,17.35
2018-05-12T20:44:37.603Z,17.24
2018-05-12T20:47:05.185Z,17.18
2018-05-12T20:49:32.767Z,17.24
2018-05-12T20:52:00.381Z,17.34
2018-05-12T20:54:27.970Z,17.24
2018-05-12T20:56:56.385Z,17.34
2018-05-12T20:59:24.671Z,17.20
2018-05-12T21:01:53.146Z,17.37
2018-05-12T21:04:20.741Z,17.24
2018-05-12T21:06:48.642Z,17.29
2018-05-12T21:09:16.230Z,17.23
2018-05-12T21:11:43.859Z,17.18
2018-05-12T21:14:11.485Z,17.08
2018-05-12T21:16:39.086Z,17.09
2018-05-12T21:19:06.714Z,17.07
2018-05-12T21:21:34.305Z,16.97
2018-05-12T21:24:02.015Z,16.92
2018-05-12T21:26:30.357Z,16.97
2018-05-12T21:28:58.717Z,16.95
2018-05-12T21:31:26.302Z,16.99
2018-05-12T21:33:53.925Z,16.95
2018-05-12T21:36:21.511Z,16.99
2018-05-12T21:38:49.142Z,16.88
2018-05-12T21:41:16.772Z,16.83
2018-05-12T21:43:44.373Z,16.78
2018-05-12T21:46:12.887Z,16.79
2018-05-12T21:48:41.385Z,16.72
2018-05-12T21:51:09.015Z,16.73
2018-05-12T21:53:36.674Z,16.61
2018-05-12T21:56:04.266Z,16.60
2018-05-12T21:58:32.010Z,16.54
2018-05-12T22:00:59.642Z,16.67
2018-05-12T22:03:27.277Z,16.58
2018-05-12T22:05:54.857Z,16.66
2018-05-12T22:08:23.378Z,16.58
2018-05-12T22:10:51.775Z,16.56
2018-05-12T22:13:19.390Z,16.62
2018-05-12T22:15:46.978Z,16.51
2018-05-12T22:18:16.449Z,16.46
2018-05-12T22:20:44.063Z,16.70
2018-05-12T22:23:11.682Z,16.59
2018-05-12T22:25:39.262Z,16.71
2018-05-12T22:28:06.887Z,16.64
2018-05-12T22:30:34.574Z,16.51
2018-05-12T22:33:02.133Z,16.57
2018-05-12T22:35:29.720Z,16.56
2018-05-12T22:37:57.304Z,16.60
2018-05-12T22:40:25.797Z,16.58
2018-05-12T22:42:54.164Z,16.74
2018-05-12T22:45:21.750Z,16.54
2018-05-12T22:47:49.335Z,16.61
2018-05-12T22:50:16.963Z,16.49
2018-05-12T22:52:44.549Z,16.55
2018-05-12T22:55:12.901Z,16.49
2018-05-12T22:57:40.481Z,16.51
2018-05-12T23:00:08.066Z,16.41
2018-05-12T23:02:35.651Z,16.48
2018-05-12T23:05:03.228Z,16.40
2018-05-12T23:07:30.806Z,16.38
2018-05-12T23:09:58.390Z,16.45
2018-05-12T23:12:25.973Z,16.52
2018-05-12T23:14:53.551Z,16.51
2018-05-12T23:17:21.140Z,16.50
2018-05-12T23:19:49.508Z,16.48
2018-05-12T23:22:17.090Z,16.57
2018-05-12T23:24:45.585Z,16.40
2018-05-12T23:27:13.954Z,16.31
2018-05-12T23:29:41.535Z,16.50
2018-05-12T23:32:09.118Z,16.45
2018-05-12T23:34:36.706Z,16.32
2018-05-12T23:37:05.125Z,16.41
2018-05-12T23:39:33.614Z,16.22
2018-05-12T23:42:01.202Z,16.24
2018-05-12T23:44:28.785Z,16.31
2018-05-12T23:46:56.366Z,16.21
2018-05-12T23:49:23.941Z,16.22
2018-05-12T23:51:52.435Z,16.20
2018-05-12T23:54:20.976Z,16.15
2018-05-12T23:56:48.557Z,16.18
2018-05-12T23:59:16.142Z,16.26
